Time;durP1;ratioP1;P1;durP2;ratioP2;P2;SDS_P1;SDS_P2;PMS_P1;PMS_P2;Temp;Humidity;BMP_temperature;BMP_pressure;BME280_temperature;BME280_humidity;BME280_pressure;Samples;Min_cycle;Max_cycle;Signal;HPM_P1;HPM_P2
2023/05/31 00:02:25;;;;;;;13.23;7.50;;;14.80;99.90;;;;;;7287075;19;20194;-78
2023/05/31 00:04:51;;;;;;;13.47;7.47;;;14.80;99.90;;;;;;7288902;19;20189;-79
2023/05/31 00:07:17;;;;;;;12.20;7.20;;;14.80;99.90;;;;;;7292675;19;20308;-78
2023/05/31 00:09:43;;;;;;;13.03;7.73;;;14.60;99.90;;;;;;7287676;19;20189;-79
2023/05/31 00:12:09;;;;;;;11.53;7.30;;;14.70;99.90;;;;;;7286828;19;20185;-79
2023/05/31 00:14:35;;;;;;;12.67;7.17;;;14.70;99.90;;;;;;7307668;19;20717;-79
2023/05/31 00:17:00;;;;;;;13.63;7.90;;;14.70;99.90;;;;;;7285820;19;20544;-79
2023/05/31 00:19:26;;;;;;;14.63;7.77;;;14.70;99.90;;;;;;7285425;19;20669;-79
2023/05/31 00:21:52;;;;;;;14.33;8.03;;;14.60;99.90;;;;;;7285368;19;20192;-79
2023/05/31 00:24:17;;;;;;;13.87;7.97;;;14.70;99.90;;;;;;7286093;19;20582;-79
2023/05/31 00:26:43;;;;;;;11.97;7.47;;;14.70;99.90;;;;;;7285854;19;20193;-79
2023/05/31 00:29:09;;;;;;;13.00;8.07;;;14.70;99.90;;;;;;7284805;19;20574;-79
2023/05/31 00:31:34;;;;;;;12.43;7.63;;;14.70;99.90;;;;;;7306456;19;20302;-79
2023/05/31 00:34:00;;;;;;;13.27;7.30;;;14.60;99.90;;;;;;7284664;19;20209;-79
2023/05/31 00:36:26;;;;;;;12.03;7.73;;;14.50;99.90;;;;;;7285114;19;20201;-79
2023/05/31 00:38:52;;;;;;;14.30;7.80;;;14.40;99.90;;;;;;7284762;19;20192;-79
2023/05/31 00:41:17;;;;;;;12.33;7.67;;;14.40;99.90;;;;;;7284873;19;20205;-78
2023/05/31 00:43:43;;;;;;;12.13;7.27;;;14.40;99.90;;;;;;7285216;19;20197;-79
2023/05/31 00:46:26;;;;;;;12.57;7.63;;;14.40;99.90;;;;;;7284746;19;20227;-78
2023/05/31 00:48:52;;;;;;;14.53;7.83;;;14.50;99.90;;;;;;7285173;19;20654;-78
2023/05/31 00:51:19;;;;;;;15.33;8.07;;;14.60;99.90;;;;;;7285524;19;20199;-79
2023/05/31 00:53:46;;;;;;;12.50;8.03;;;14.50;99.90;;;;;;7283758;19;20556;-79
2023/05/31 00:56:13;;;;;;;12.97;7.83;;;14.50;99.90;;;;;;7283530;19;20251;-78
2023/05/31 00:58:41;;;;;;;12.63;8.37;;;14.30;99.90;;;;;;7283202;19;20192;-79
2023/05/31 01:01:07;;;;;;;14.50;8.40;;;14.30;99.90;;;;;;7295739;19;20220;-78
2023/05/31 01:03:34;;;;;;;14.03;8.10;;;14.30;99.90;;;;;;7305433;19;20648;-79
2023/05/31 01:06:00;;;;;;;13.63;8.43;;;14.40;99.90;;;;;;7283580;19;20186;-79
2023/05/31 01:08:27;;;;;;;12.53;8.00;;;14.30;99.90;;;;;;7284930;19;20183;-79
2023/05/31 01:10:56;;;;;;;15.37;7.57;;;14.30;99.90;;;;;;7283200;19;20202;-79
2023/05/31 01:13:42;;;;;;;12.73;8.30;;;14.30;99.90;;;;;;7283190;19;20255;-79
2023/05/31 01:16:18;;;;;;;12.93;8.37;;;14.20;99.90;;;;;;7265215;19;20302;-78
2023/05/31 01:18:54;;;;;;;15.63;8.97;;;14.30;99.90;;;;;;7283055;19;20228;-78
2023/05/31 01:21:29;;;;;;;14.50;8.17;;;14.40;99.90;;;;;;7284070;19;20189;-79
2023/05/31 01:24:15;;;;;;;11.67;7.90;;;14.30;99.90;;;;;;7282547;19;20234;-79
2023/05/31 01:26:49;;;;;;;13.67;8.90;;;14.20;99.90;;;;;;7180474;19;2004610;-78
2023/05/31 01:29:19;;;;;;;14.67;8.80;;;14.20;99.90;;;;;;7281489;19;20191;-78
2023/05/31 01:31:48;;;;;;;12.47;8.60;;;14.20;99.90;;;;;;7283975;19;20218;-78
2023/05/31 01:34:14;;;;;;;14.60;8.90;;;14.20;99.90;;;;;;7283978;19;20186;-78
2023/05/31 01:36:41;;;;;;;13.03;8.70;;;14.10;99.90;;;;;;7282529;19;20184;-78
2023/05/31 01:39:08;;;;;;;14.20;9.17;;;14.00;99.90;;;;;;7296011;19;20190;-78
2023/05/31 01:41:39;;;;;;;13.50;8.87;;;13.90;99.90;;;;;;7304172;19;20188;-79
2023/05/31 01:44:07;;;;;;;13.00;9.40;;;14.00;99.90;;;;;;7285481;19;20286;-79
2023/05/31 01:46:33;;;;;;;13.70;8.67;;;13.90;99.90;;;;;;7290610;19;20192;-79
2023/05/31 01:49:01;;;;;;;13.87;9.17;;;14.00;99.90;;;;;;7288186;19;20687;-78
2023/05/31 01:51:28;;;;;;;14.73;9.47;;;13.90;99.90;;;;;;7290549;19;20192;-78
2023/05/31 01:53:54;;;;;;;13.07;8.83;;;14.00;99.90;;;;;;7289708;19;20658;-79
2023/05/31 01:56:21;;;;;;;14.90;9.00;;;14.10;99.90;;;;;;7288480;19;20195;-79
2023/05/31 01:58:51;;;;;;;15.00;8.97;;;14.00;99.90;;;;;;7289407;19;20203;-78
2023/05/31 02:01:18;;;;;;;13.90;9.20;;;13.90;99.90;;;;;;7288514;19;20183;-78
2023/05/31 02:03:44;;;;;;;14.10;9.67;;;13.70;99.90;;;;;;7289722;19;20182;-78
2023/05/31 02:06:13;;;;;;;13.67;9.63;;;13.80;99.90;;;;;;7288706;19;20187;-78
2023/05/31 02:08:40;;;;;;;15.10;9.33;;;13.70;99.90;;;;;;7288118;19;20180;-79
2023/05/31 02:11:06;;;;;;;12.93;9.40;;;13.70;99.90;;;;;;7306542;19;21772;-78
2023/05/31 02:13:33;;;;;;;15.50;9.40;;;13.60;99.90;;;;;;7302899;19;20277;-78
2023/05/31 02:16:00;;;;;;;16.17;9.93;;;13.60;99.90;;;;;;7288582;19;20241;-79
2023/05/31 02:18:26;;;;;;;14.13;9.73;;;13.70;99.90;;;;;;7288988;19;20193;-79
2023/05/31 02:20:53;;;;;;;15.57;9.93;;;13.70;99.90;;;;;;7288466;19;20188;-79
2023/05/31 02:23:19;;;;;;;14.33;10.10;;;13.60;99.90;;;;;;7287728;19;20211;-78
2023/05/31 02:25:46;;;;;;;17.73;9.80;;;13.50;99.90;;;;;;7287879;19;20572;-78
2023/05/31 02:28:13;;;;;;;16.23;10.53;;;13.50;99.90;;;;;;7287268;19;20202;-79
2023/05/31 02:30:52;;;;;;;15.83;10.53;;;13.50;99.90;;;;;;7287500;19;20197;-79
2023/05/31 02:33:18;;;;;;;16.70;10.33;;;13.50;99.90;;;;;;7289072;19;20550;-79
2023/05/31 02:35:43;;;;;;;16.80;10.23;;;13.60;99.90;;;;;;7288703;19;20642;-78
2023/05/31 02:38:09;;;;;;;15.57;10.47;;;13.50;99.90;;;;;;7287895;19;20182;-78
2023/05/31 02:40:35;;;;;;;15.53;11.23;;;13.60;99.90;;;;;;7312793;19;20182;-79
2023/05/31 02:43:02;;;;;;;17.60;11.10;;;13.60;99.90;;;;;;7287371;19;20198;-79
2023/05/31 02:45:28;;;;;;;16.63;10.93;;;13.50;99.90;;;;;;7284820;19;20185;-79
2023/05/31 02:47:54;;;;;;;16.70;11.07;;;13.60;99.90;;;;;;7287416;19;20224;-79
2023/05/31 02:50:20;;;;;;;16.00;10.80;;;13.50;99.90;;;;;;7287946;19;20191;-78
2023/05/31 02:52:53;;;;;;;15.10;10.53;;;13.50;99.90;;;;;;7289625;19;20186;-78
2023/05/31 02:55:33;;;;;;;18.53;11.07;;;13.60;99.90;;;;;;7287783;19;20188;-78
2023/05/31 02:58:19;;;;;;;17.23;10.73;;;13.60;99.90;;;;;;7185747;19;2004636;-78
2023/05/31 03:01:05;;;;;;;17.73;10.70;;;13.60;99.90;;;;;;7288746;19;20184;-78
2023/05/31 03:03:34;;;;;;;16.60;11.30;;;13.60;99.90;;;;;;7286184;19;20556;-79
2023/05/31 03:06:05;;;;;;;17.00;11.30;;;13.60;99.90;;;;;;7287591;19;20183;-78
2023/05/31 03:08:32;;;;;;;16.67;11.70;;;13.60;99.90;;;;;;7287571;19;20210;-79
2023/05/31 03:10:57;;;;;;;18.77;11.73;;;13.60;99.90;;;;;;7287622;19;20518;-78
2023/05/31 03:13:24;;;;;;;21.37;11.80;;;13.60;99.90;;;;;;7289305;19;20271;-78
2023/05/31 03:15:49;;;;;;;19.07;12.10;;;13.50;99.90;;;;;;7287589;19;20252;-78
2023/05/31 03:18:15;;;;;;;17.07;11.60;;;13.50;99.90;;;;;;7286279;19;20277;-78
2023/05/31 03:20:42;;;;;;;17.80;12.53;;;13.40;99.90;;;;;;7287378;19;20197;-78
2023/05/31 03:23:08;;;;;;;19.20;12.07;;;13.40;99.90;;;;;;7288523;19;20254;-78
2023/05/31 03:25:34;;;;;;;18.30;12.87;;;13.40;99.90;;;;;;7307877;19;20711;-79
2023/05/31 03:28:01;;;;;;;20.57;12.70;;;13.30;99.90;;;;;;7288095;19;20206;-78
2023/05/31 03:30:27;;;;;;;17.03;12.47;;;13.20;99.90;;;;;;7286749;19;20182;-79
2023/05/31 03:32:57;;;;;;;20.90;13.30;;;13.20;99.90;;;;;;7287435;19;20184;-79
2023/05/31 03:35:23;;;;;;;18.60;12.73;;;13.20;99.90;;;;;;7286071;19;20225;-79
2023/05/31 03:37:50;;;;;;;20.53;11.97;;;13.30;99.90;;;;;;7286794;19;20197;-79
2023/05/31 03:40:16;;;;;;;17.57;12.40;;;13.10;99.90;;;;;;7285396;19;20193;-78
2023/05/31 03:42:41;;;;;;;19.63;13.77;;;12.90;99.90;;;;;;7285600;19;20189;-79
2023/05/31 03:45:08;;;;;;;20.10;13.73;;;13.00;99.90;;;;;;7289709;19;20194;-78
2023/05/31 03:47:34;;;;;;;19.07;13.27;;;13.00;99.90;;;;;;7309733;19;20194;-78
2023/05/31 03:50:00;;;;;;;20.40;13.53;;;13.00;99.90;;;;;;7284747;19;20197;-79
2023/05/31 03:52:26;;;;;;;20.90;13.70;;;13.10;99.90;;;;;;7285699;19;21968;-78
2023/05/31 03:54:52;;;;;;;18.93;13.27;;;13.10;99.90;;;;;;7284603;19;20703;-79
2023/05/31 03:57:18;;;;;;;21.67;13.60;;;13.20;99.90;;;;;;7286283;19;20199;-78
2023/05/31 03:59:43;;;;;;;21.07;14.53;;;13.20;99.90;;;;;;7286052;19;20203;-79
2023/05/31 04:02:09;;;;;;;20.03;14.20;;;13.20;99.90;;;;;;7285833;19;20186;-78
2023/05/31 04:04:35;;;;;;;19.70;14.20;;;13.30;99.90;;;;;;7308447;19;20189;-79
2023/05/31 04:07:01;;;;;;;20.83;13.80;;;13.20;99.90;;;;;;7284693;19;20202;-78
2023/05/31 04:09:27;;;;;;;19.17;14.03;;;13.10;99.90;;;;;;7285518;19;20207;-79
2023/05/31 04:11:53;;;;;;;19.83;14.47;;;13.00;99.90;;;;;;7284666;19;20687;-78
2023/05/31 04:14:19;;;;;;;22.47;13.70;;;13.10;99.90;;;;;;7285977;19;20198;-78
2023/05/31 04:16:46;;;;;;;18.97;14.37;;;13.10;99.90;;;;;;7285896;19;20199;-79
2023/05/31 04:19:13;;;;;;;19.73;14.53;;;13.20;99.90;;;;;;7285374;19;20268;-78
2023/05/31 04:21:39;;;;;;;22.97;15.00;;;13.20;99.90;;;;;;7285029;19;20191;-78
2023/05/31 04:24:06;;;;;;;20.67;14.03;;;13.10;99.90;;;;;;7307041;19;20197;-79
2023/05/31 04:26:33;;;;;;;22.53;14.53;;;13.20;99.90;;;;;;7286349;19;20696;-78
2023/05/31 04:28:59;;;;;;;22.50;13.90;;;13.20;99.90;;;;;;7283889;19;20226;-78
2023/05/31 04:31:29;;;;;;;22.10;14.20;;;13.30;99.90;;;;;;7283995;19;20210;-79
2023/05/31 04:33:57;;;;;;;18.37;13.93;;;13.50;99.90;;;;;;7284040;19;20186;-79
2023/05/31 04:36:24;;;;;;;19.53;13.17;;;14.00;99.90;;;;;;7285957;19;20197;-79
2023/05/31 04:38:51;;;;;;;17.90;13.30;;;14.60;99.90;;;;;;7284048;19;20247;-79
2023/05/31 04:41:25;;;;;;;19.07;13.30;;;15.10;99.90;;;;;;7284131;19;20195;-78
2023/05/31 04:43:53;;;;;;;18.33;12.50;;;15.30;99.90;;;;;;7285167;19;20194;-78
2023/05/31 04:46:21;;;;;;;21.20;12.17;;;15.70;99.90;;;;;;7284795;19;20212;-78
2023/05/31 04:48:49;;;;;;;18.17;12.63;;;15.80;99.90;;;;;;7283855;19;20203;-79
2023/05/31 04:51:17;;;;;;;20.00;12.30;;;16.20;99.90;;;;;;7285602;19;20580;-78
2023/05/31 04:53:47;;;;;;;18.33;12.13;;;16.70;99.90;;;;;;7285404;19;20196;-80
2023/05/31 04:56:14;;;;;;;15.67;11.43;;;16.90;99.90;;;;;;7281545;19;20653;-79
2023/05/31 04:58:40;;;;;;;17.07;11.70;;;17.00;99.90;;;;;;7285827;19;20200;-79
2023/05/31 05:01:07;;;;;;;19.00;12.17;;;17.00;99.90;;;;;;7303207;19;20196;-76
2023/05/31 05:03:51;;;;;;;15.63;11.27;;;17.20;99.90;;;;;;7284637;19;20222;-78
2023/05/31 05:06:17;;;;;;;18.43;11.40;;;17.70;99.90;;;;;;7285431;19;20220;-78
2023/05/31 05:08:44;;;;;;;14.97;10.90;;;18.50;99.90;;;;;;7282542;19;20291;-78
2023/05/31 05:11:10;;;;;;;15.60;11.30;;;19.10;99.90;;;;;;7285844;19;20217;-78
2023/05/31 05:13:37;;;;;;;15.80;11.43;;;19.30;99.90;;;;;;7306670;19;20181;-79
2023/05/31 05:16:02;;;;;;;15.93;10.87;;;19.30;99.90;;;;;;7282120;19;20209;-78
2023/05/31 05:18:29;;;;;;;16.23;11.73;;;19.90;99.90;;;;;;7282610;19;20178;-79
2023/05/31 05:20:56;;;;;;;16.93;11.57;;;19.70;99.90;;;;;;7281956;19;20625;-78
2023/05/31 05:23:25;;;;;;;18.67;11.47;;;19.60;99.90;;;;;;7283241;19;20185;-78
2023/05/31 05:25:52;;;;;;;15.77;11.63;;;19.60;99.90;;;;;;7283488;19;20683;-80
2023/05/31 05:28:18;;;;;;;17.90;12.03;;;19.80;99.90;;;;;;7282822;19;20189;-78
2023/05/31 05:30:44;;;;;;;20.00;12.27;;;19.70;99.90;;;;;;7279339;19;20224;-78
2023/05/31 05:33:11;;;;;;;16.47;12.23;;;19.70;99.90;;;;;;7282161;19;20188;-79
2023/05/31 05:35:37;;;;;;;18.97;11.83;;;19.60;99.90;;;;;;7294248;19;20199;-78
2023/05/31 05:38:03;;;;;;;18.83;12.57;;;20.30;99.90;;;;;;7294937;19;20656;-79
2023/05/31 05:40:28;;;;;;;17.17;12.03;;;21.00;99.90;;;;;;7282970;19;20199;-78
2023/05/31 05:42:54;;;;;;;18.07;11.80;;;20.70;99.90;;;;;;7283142;19;20189;-79
2023/05/31 05:45:20;;;;;;;17.07;11.87;;;20.30;99.90;;;;;;7283266;19;20197;-80
2023/05/31 05:47:48;;;;;;;19.67;11.83;;;21.10;99.90;;;;;;7281805;19;20200;-78
2023/05/31 05:50:16;;;;;;;20.53;11.67;;;21.90;99.90;;;;;;7281817;19;20198;-77
2023/05/31 05:52:42;;;;;;;15.43;11.27;;;21.80;99.90;;;;;;7281533;19;20201;-77
2023/05/31 05:55:08;;;;;;;15.20;10.70;;;22.30;99.90;;;;;;7293658;19;20196;-76
2023/05/31 05:57:34;;;;;;;16.73;11.43;;;22.40;99.90;;;;;;7304404;19;20276;-77
2023/05/31 06:00:17;;;;;;;21.30;10.97;;;22.10;99.90;;;;;;7181505;19;2004645;-78
2023/05/31 06:02:45;;;;;;;16.23;10.40;;;21.70;99.90;;;;;;7282446;19;20347;-78
2023/05/31 06:05:12;;;;;;;17.17;11.00;;;21.80;99.90;;;;;;7283327;19;20252;-77
2023/05/31 06:07:38;;;;;;;18.83;11.23;;;22.10;99.90;;;;;;7285021;19;20213;-76
2023/05/31 06:10:05;;;;;;;16.73;10.70;;;22.00;99.90;;;;;;7305060;19;20191;-77
2023/05/31 06:12:30;;;;;;;15.70;11.03;;;22.00;99.90;;;;;;7281103;19;20189;-79
2023/05/31 06:14:57;;;;;;;15.67;10.53;;;22.20;99.90;;;;;;7282328;19;20242;-79
2023/05/31 06:17:23;;;;;;;14.00;10.23;;;22.50;99.90;;;;;;7283067;19;20227;-79
2023/05/31 06:19:49;;;;;;;17.93;10.27;;;22.80;99.90;;;;;;7283346;19;20192;-79
2023/05/31 06:22:15;;;;;;;15.37;9.83;;;23.40;99.90;;;;;;7281289;19;20196;-79
2023/05/31 06:24:42;;;;;;;16.60;9.73;;;23.60;99.90;;;;;;7283433;19;20189;-79
2023/05/31 06:27:09;;;;;;;13.87;9.87;;;23.80;99.90;;;;;;7287495;19;20636;-79
2023/05/31 06:29:38;;;;;;;14.90;10.30;;;24.10;99.90;;;;;;7289973;19;20628;-80
2023/05/31 06:32:39;;;;;;;14.48;9.50;;;24.30;99.90;;;;;;7268758;19;20188;-80
2023/05/31 06:35:06;;;;;;;13.75;10.18;;;24.30;99.90;;;;;;7311539;19;20184;-80
2023/05/31 06:37:32;;;;;;;14.55;9.63;;;23.90;99.90;;;;;;7290306;19;20193;-80
2023/05/31 06:39:58;;;;;;;14.60;9.70;;;23.70;99.90;;;;;;7293788;19;20174;-80
2023/05/31 06:42:25;;;;;;;14.35;10.05;;;23.70;99.90;;;;;;7298332;19;20193;-79
2023/05/31 06:44:53;;;;;;;15.35;9.90;;;23.70;99.90;;;;;;7307953;19;20196;-79
2023/05/31 06:47:37;;;;;;;13.75;9.73;;;23.40;99.90;;;;;;7297102;19;20191;-79
2023/05/31 06:50:35;;;;;;;17.37;10.23;;;23.30;99.90;;;;;;7288589;19;20201;-80
2023/05/31 06:53:19;;;;;;;16.33;9.97;;;23.00;99.90;;;;;;7187069;19;2004707;-79
2023/05/31 06:55:50;;;;;;;16.52;9.43;;;23.20;99.90;;;;;;7289044;19;20672;-80
2023/05/31 06:58:20;;;;;;;19.88;10.57;;;23.60;99.90;;;;;;7289513;19;20181;-80
2023/05/31 07:00:48;;;;;;;13.57;8.95;;;23.60;99.90;;;;;;7288957;19;20196;-80
2023/05/31 07:03:14;;;;;;;18.48;9.65;;;23.60;99.90;;;;;;7287845;19;20197;-79
2023/05/31 07:05:43;;;;;;;15.20;9.00;;;23.50;99.90;;;;;;7288910;19;20189;-80
2023/05/31 07:08:10;;;;;;;17.63;9.25;;;23.60;99.90;;;;;;7286668;19;20552;-79
2023/05/31 07:10:47;;;;;;;16.63;8.80;;;24.00;99.90;;;;;;7286971;19;20191;-79
2023/05/31 07:13:12;;;;;;;14.57;8.73;;;24.60;99.90;;;;;;7288968;19;20260;-80
2023/05/31 07:15:39;;;;;;;15.10;9.43;;;24.80;99.90;;;;;;7286293;19;20181;-79
2023/05/31 07:18:05;;;;;;;15.90;9.07;;;25.00;99.90;;;;;;7310742;19;20546;-80
2023/05/31 07:20:32;;;;;;;17.88;9.45;;;25.70;99.90;;;;;;7287613;19;20227;-80
2023/05/31 07:22:58;;;;;;;13.30;8.75;;;25.70;99.90;;;;;;7286794;19;20608;-80
2023/05/31 07:25:24;;;;;;;16.35;9.07;;;26.30;99.90;;;;;;7288876;19;20228;-80
2023/05/31 07:27:50;;;;;;;16.98;9.00;;;26.10;99.90;;;;;;7289149;19;20204;-80
2023/05/31 07:30:16;;;;;;;15.27;9.35;;;26.10;99.90;;;;;;7288869;19;20543;-80
2023/05/31 07:32:41;;;;;;;13.85;8.35;;;26.10;99.90;;;;;;7289473;19;20565;-80
2023/05/31 07:35:07;;;;;;;16.35;8.90;;;26.80;99.90;;;;;;7303692;19;20197;-79
2023/05/31 07:37:33;;;;;;;14.75;8.98;;;26.50;99.90;;;;;;7304926;19;20281;-80
2023/05/31 07:39:59;;;;;;;12.82;8.10;;;26.60;99.90;;;;;;7287282;19;20186;-80
2023/05/31 07:42:25;;;;;;;15.15;8.45;;;26.70;99.90;;;;;;7284526;19;20204;-80
2023/05/31 07:44:51;;;;;;;17.58;8.50;;;27.00;99.90;;;;;;7287109;19;20185;-80
2023/05/31 07:47:17;;;;;;;11.73;7.50;;;27.10;99.90;;;;;;7287445;19;20664;-80
2023/05/31 07:49:42;;;;;;;13.82;8.18;;;27.30;99.90;;;;;;7284912;19;20188;-80
2023/05/31 07:52:08;;;;;;;14.45;8.32;;;27.70;99.90;;;;;;7297856;19;20213;-80
2023/05/31 07:54:34;;;;;;;14.43;8.45;;;27.40;99.90;;;;;;7307468;19;20580;-80
2023/05/31 07:57:00;;;;;;;15.95;8.27;;;27.70;99.90;;;;;;7286850;19;20210;-80
2023/05/31 07:59:26;;;;;;;16.00;7.80;;;28.10;99.90;;;;;;7287377;19;20656;-80
2023/05/31 08:01:52;;;;;;;11.57;7.10;;;28.40;99.90;;;;;;7285064;19;20188;-80
2023/05/31 08:04:17;;;;;;;12.95;7.63;;;28.50;99.90;;;;;;7286783;19;20188;-80
2023/05/31 08:06:43;;;;;;;12.77;7.50;;;28.60;99.90;;;;;;7285407;19;20196;-79
2023/05/31 08:09:09;;;;;;;13.77;7.88;;;27.70;99.90;;;;;;7289112;19;20210;-80
2023/05/31 08:11:36;;;;;;;15.80;7.70;;;27.60;99.90;;;;;;7308693;19;20668;-80
2023/05/31 08:14:05;;;;;;;13.18;7.00;;;28.20;99.90;;;;;;7285954;19;20220;-80
2023/05/31 08:16:33;;;;;;;14.68;7.53;;;28.10;99.90;;;;;;7285828;19;20210;-80
2023/05/31 08:18:59;;;;;;;12.00;7.25;;;28.40;99.90;;;;;;7286407;19;20206;-80
2023/05/31 08:21:24;;;;;;;13.23;7.38;;;28.60;99.90;;;;;;7286280;19;20551;-80
2023/05/31 08:23:50;;;;;;;12.90;6.93;;;28.70;99.90;;;;;;7284750;19;20555;-80
2023/05/31 08:26:16;;;;;;;14.73;6.85;;;28.70;99.90;;;;;;7283965;19;20206;-80
2023/05/31 08:28:42;;;;;;;12.65;6.60;;;28.90;99.90;;;;;;7286349;19;20188;-80
2023/05/31 08:31:08;;;;;;;13.15;6.85;;;29.70;99.90;;;;;;7300538;19;20189;-80
2023/05/31 08:33:33;;;;;;;12.90;7.32;;;30.00;98.40;;;;;;7300673;19;20185;-80
2023/05/31 08:36:00;;;;;;;14.93;7.13;;;29.30;97.80;;;;;;7285717;19;20211;-80
2023/05/31 08:38:28;;;;;;;13.38;6.82;;;28.80;99.90;;;;;;7287307;19;20189;-80
2023/05/31 08:41:00;;;;;;;12.82;7.20;;;29.20;98.30;;;;;;7286204;19;20200;-80
2023/05/31 08:43:27;;;;;;;13.13;6.88;;;29.80;97.90;;;;;;7285231;19;20209;-80
2023/05/31 08:45:54;;;;;;;12.65;7.13;;;30.10;97.40;;;;;;7285150;19;20210;-80
2023/05/31 08:48:33;;;;;;;18.55;7.38;;;29.20;96.80;;;;;;7285584;19;20537;-80
2023/05/31 08:51:00;;;;;;;13.45;6.70;;;28.50;98.00;;;;;;7286643;19;20181;-81
2023/05/31 08:53:26;;;;;;;12.77;6.65;;;28.50;97.30;;;;;;7284400;19;20189;-80
2023/05/31 08:55:53;;;;;;;13.63;7.50;;;29.00;97.40;;;;;;7283421;19;20192;-79
2023/05/31 08:58:20;;;;;;;12.70;6.55;;;29.30;96.60;;;;;;7283725;19;20195;-80
2023/05/31 09:00:46;;;;;;;15.80;6.80;;;29.00;96.10;;;;;;7279961;19;20189;-79
2023/05/31 09:03:12;;;;;;;13.93;6.68;;;29.00;96.10;;;;;;7284462;19;20652;-79
2023/05/31 09:05:38;;;;;;;15.10;6.88;;;29.20;95.10;;;;;;7298996;19;20214;-79
2023/05/31 09:08:04;;;;;;;12.95;6.18;;;29.10;95.60;;;;;;7299322;19;20637;-79
2023/05/31 09:10:30;;;;;;;13.98;6.50;;;29.20;95.40;;;;;;7284152;19;20188;-80
2023/05/31 09:12:56;;;;;;;11.70;5.75;;;29.90;94.00;;;;;;7283764;19;20181;-79
2023/05/31 09:15:23;;;;;;;12.80;6.57;;;30.20;94.60;;;;;;7283040;19;20573;-79
2023/05/31 09:17:49;;;;;;;15.48;6.13;;;30.30;94.20;;;;;;7283485;19;20196;-79
2023/05/31 09:20:16;;;;;;;16.33;6.72;;;31.10;93.70;;;;;;7284541;19;20184;-79
2023/05/31 09:22:42;;;;;;;12.80;6.03;;;31.00;92.50;;;;;;7279309;19;20192;-79
2023/05/31 09:25:08;;;;;;;12.10;6.20;;;31.30;90.80;;;;;;7301371;19;20189;-77
2023/05/31 09:27:38;;;;;;;12.20;5.88;;;31.40;90.70;;;;;;7301705;19;20195;-79
2023/05/31 09:30:09;;;;;;;14.00;5.90;;;30.80;91.00;;;;;;7284905;19;20729;-79
2023/05/31 09:32:35;;;;;;;14.93;5.70;;;30.10;90.70;;;;;;7283539;19;20311;-79
2023/05/31 09:35:15;;;;;;;13.25;5.38;;;29.90;90.90;;;;;;7283572;19;20188;-79
2023/05/31 09:37:49;;;;;;;11.93;5.00;;;30.20;91.30;;;;;;7262364;19;20205;-77
2023/05/31 09:40:25;;;;;;;13.63;5.60;;;30.60;91.20;;;;;;7281953;19;20664;-77
2023/05/31 09:42:52;;;;;;;13.65;5.93;;;31.30;90.20;;;;;;7280513;19;20241;-78
2023/05/31 09:45:19;;;;;;;13.00;6.75;;;30.60;90.40;;;;;;7281620;19;20184;-78
2023/05/31 09:47:46;;;;;;;15.98;6.57;;;30.50;88.30;;;;;;7280674;19;20288;-77
2023/05/31 09:50:16;;;;;;;11.73;5.53;;;30.40;90.30;;;;;;7281550;19;20672;-77
2023/05/31 09:52:44;;;;;;;10.55;4.75;;;30.30;90.50;;;;;;7281378;19;20217;-77
2023/05/31 09:55:11;;;;;;;12.10;5.40;;;30.60;89.80;;;;;;7281929;19;20208;-77
2023/05/31 09:57:43;;;;;;;15.30;5.15;;;30.10;89.40;;;;;;7291681;19;20644;-77
2023/05/31 10:00:17;;;;;;;12.00;4.93;;;29.90;86.80;;;;;;7285926;19;20203;-76
2023/05/31 10:02:44;;;;;;;14.48;5.97;;;29.50;87.00;;;;;;7285686;19;20222;-78
2023/05/31 10:05:11;;;;;;;13.77;5.15;;;29.20;86.40;;;;;;7284412;19;20306;-78
2023/05/31 10:07:39;;;;;;;9.20;4.50;;;29.80;89.10;;;;;;7310826;19;20645;-79
2023/05/31 10:10:09;;;;;;;11.10;5.30;;;30.90;87.90;;;;;;7288371;19;20181;-79
2023/05/31 10:12:41;;;;;;;11.43;5.65;;;30.60;85.40;;;;;;7290582;19;20216;-79
2023/05/31 10:15:11;;;;;;;12.50;5.07;;;30.40;85.70;;;;;;7289009;19;20177;-78
2023/05/31 10:17:42;;;;;;;12.40;5.47;;;31.00;85.90;;;;;;7289644;19;20196;-78
2023/05/31 10:20:11;;;;;;;11.68;4.10;;;30.90;85.20;;;;;;7286516;19;20192;-78
2023/05/31 10:22:40;;;;;;;10.15;4.55;;;31.40;87.20;;;;;;7310796;19;20181;-79
2023/05/31 10:25:45;;;;;;;10.18;4.43;;;31.20;82.30;;;;;;7290314;19;20185;-78
2023/05/31 10:28:15;;;;;;;11.80;4.65;;;31.10;81.20;;;;;;7083866;19;2005524;-78
2023/05/31 10:30:43;;;;;;;12.73;4.22;;;31.50;83.10;;;;;;7286423;19;20192;-77
2023/05/31 10:33:13;;;;;;;12.30;5.03;;;31.40;80.70;;;;;;7295804;19;20181;-77
2023/05/31 10:35:40;;;;;;;11.18;4.80;;;31.50;80.50;;;;;;7290321;19;20205;-77
2023/05/31 10:38:06;;;;;;;14.07;5.13;;;31.70;79.70;;;;;;7309518;19;20209;-76
2023/05/31 10:40:55;;;;;;;14.18;4.80;;;31.20;80.80;;;;;;7286010;19;20214;-77
2023/05/31 10:43:23;;;;;;;9.70;3.60;;;30.80;81.80;;;;;;7185800;19;2004695;-77
2023/05/31 10:45:58;;;;;;;10.90;4.15;;;31.80;81.10;;;;;;7285864;19;20189;-77
2023/05/31 10:48:51;;;;;;;11.35;4.35;;;31.10;77.10;;;;;;7287616;19;20712;-77
2023/05/31 10:51:17;;;;;;;13.77;4.18;;;31.40;77.40;;;;;;7184765;19;2004678;-77
2023/05/31 10:53:48;;;;;;;9.90;3.15;;;31.20;76.90;;;;;;7287099;19;20189;-77
2023/05/31 10:56:15;;;;;;;8.75;3.70;;;30.90;74.20;;;;;;7286047;19;20249;-77
2023/05/31 10:58:50;;;;;;;12.88;3.63;;;30.40;74.80;;;;;;7284225;19;20668;-76
2023/05/31 11:01:21;;;;;;;11.30;3.72;;;29.80;77.30;;;;;;7287165;19;20641;-77
2023/05/31 11:03:53;;;;;;;7.70;3.00;;;30.30;77.10;;;;;;7286288;19;20275;-77
2023/05/31 11:06:36;;;;;;;7.95;3.00;;;31.40;74.00;;;;;;7286094;19;20244;-77
2023/05/31 11:09:08;;;;;;;8.77;3.20;;;31.80;72.00;;;;;;7286155;19;20605;-77
2023/05/31 11:11:33;;;;;;;10.63;3.55;;;31.40;71.00;;;;;;7285790;19;20661;-77
2023/05/31 11:14:06;;;;;;;10.07;3.40;;;30.80;72.10;;;;;;7288953;19;20197;-77
2023/05/31 11:16:45;;;;;;;10.90;3.95;;;31.50;71.80;;;;;;7283133;19;20269;-76
2023/05/31 11:19:16;;;;;;;8.73;2.83;;;32.20;69.80;;;;;;7264787;19;20210;-77
2023/05/31 11:21:46;;;;;;;9.27;3.70;;;31.30;70.70;;;;;;7286050;19;20549;-78
2023/05/31 11:24:30;;;;;;;10.40;3.33;;;31.90;71.80;;;;;;7286524;19;20189;-77
2023/05/31 11:26:59;;;;;;;10.05;3.53;;;31.90;71.00;;;;;;7285776;19;20258;-77
2023/05/31 11:29:26;;;;;;;9.75;3.60;;;31.90;70.00;;;;;;7285249;19;20193;-77
2023/05/31 11:31:54;;;;;;;7.88;2.95;;;31.40;68.60;;;;;;7283917;19;20637;-77
2023/05/31 11:34:33;;;;;;;10.18;3.03;;;30.90;71.50;;;;;;7287224;19;20196;-77
2023/05/31 11:37:01;;;;;;;9.60;3.10;;;30.60;69.20;;;;;;7287478;19;20197;-77
2023/05/31 11:39:26;;;;;;;10.73;3.25;;;30.10;70.10;;;;;;7286535;19;20189;-77
2023/05/31 11:41:54;;;;;;;11.95;3.42;;;30.60;71.90;;;;;;7285881;19;20200;-79
2023/05/31 11:44:30;;;;;;;9.07;3.03;;;30.80;71.90;;;;;;7287323;19;20248;-78
2023/05/31 11:47:09;;;;;;;8.52;3.58;;;31.10;71.70;;;;;;7286497;19;20201;-78
2023/05/31 11:49:35;;;;;;;8.63;3.15;;;30.60;70.00;;;;;;7287862;19;20221;-78
2023/05/31 11:52:02;;;;;;;8.88;2.78;;;30.00;68.50;;;;;;7286510;19;20260;-79
2023/05/31 11:54:30;;;;;;;8.70;3.03;;;29.60;68.70;;;;;;7287369;19;20261;-79
2023/05/31 11:57:01;;;;;;;12.05;3.50;;;29.10;68.20;;;;;;7285957;19;20196;-79
2023/05/31 11:59:27;;;;;;;12.43;2.92;;;29.30;69.40;;;;;;7288716;19;20569;-79
2023/05/31 12:01:58;;;;;;;9.88;3.25;;;29.20;70.70;;;;;;7287301;19;20602;-79
2023/05/31 12:04:29;;;;;;;9.20;3.08;;;28.80;69.50;;;;;;7284985;19;20189;-80
2023/05/31 12:06:55;;;;;;;7.63;3.00;;;28.40;70.30;;;;;;7287893;19;20214;-79
2023/05/31 12:09:26;;;;;;;9.88;3.40;;;27.80;71.70;;;;;;7286284;19;20184;-79
2023/05/31 12:11:54;;;;;;;8.80;3.10;;;26.90;72.70;;;;;;7286062;19;20896;-79
2023/05/31 12:14:20;;;;;;;8.95;3.03;;;26.50;74.90;;;;;;7286743;19;20189;-79
2023/05/31 12:16:49;;;;;;;9.52;2.90;;;26.40;77.20;;;;;;7287018;19;20552;-78
2023/05/31 12:19:15;;;;;;;8.85;2.72;;;26.50;79.10;;;;;;7285337;19;20184;-79
2023/05/31 12:21:42;;;;;;;8.20;2.92;;;26.60;75.30;;;;;;7282884;19;20188;-79
2023/05/31 12:24:15;;;;;;;10.85;3.05;;;26.30;76.90;;;;;;7306631;19;20287;-80
2023/05/31 12:26:45;;;;;;;13.10;2.90;;;26.50;75.70;;;;;;7263049;19;20197;-79
2023/05/31 12:29:16;;;;;;;8.48;3.00;;;26.30;76.70;;;;;;7283818;19;20241;-78
2023/05/31 12:31:42;;;;;;;9.38;3.20;;;26.10;77.20;;;;;;7285044;19;20264;-78
2023/05/31 12:34:09;;;;;;;13.35;2.95;;;25.90;78.50;;;;;;7300907;19;20205;-77
2023/05/31 12:36:45;;;;;;;12.32;3.20;;;25.80;76.90;;;;;;7306295;19;20189;-78
2023/05/31 12:39:14;;;;;;;6.88;2.70;;;25.50;76.10;;;;;;7262862;19;20192;-78
2023/05/31 12:41:44;;;;;;;9.77;2.67;;;25.70;77.60;;;;;;7289614;19;20181;-79